sensor_id;sensor_type;location;lat;lon;timestamp;temperature;humidity
65064;DHT22;51654;51.452;6.644;2022-07-21T00:02:14;22.40;64.40
65064;DHT22;51654;51.452;6.644;2022-07-21T00:04:41;22.40;63.90
65064;DHT22;51654;51.452;6.644;2022-07-21T00:07:08;22.50;64.00
65064;DHT22;51654;51.452;6.644;2022-07-21T00:09:35;22.50;64.10
65064;DHT22;51654;51.452;6.644;2022-07-21T00:12:02;22.60;63.90
65064;DHT22;51654;51.452;6.644;2022-07-21T00:14:29;22.50;63.10
65064;DHT22;51654;51.452;6.644;2022-07-21T00:16:56;22.40;62.70
65064;DHT22;51654;51.452;6.644;2022-07-21T00:19:23;22.20;62.90
65064;DHT22;51654;51.452;6.644;2022-07-21T00:21:50;22.10;63.30
65064;DHT22;51654;51.452;6.644;2022-07-21T00:24:16;22.00;63.90
65064;DHT22;51654;51.452;6.644;2022-07-21T00:26:43;22.00;63.60
65064;DHT22;51654;51.452;6.644;2022-07-21T00:29:10;22.00;63.90
65064;DHT22;51654;51.452;6.644;2022-07-21T00:31:37;22.00;64.20
65064;DHT22;51654;51.452;6.644;2022-07-21T00:34:04;22.10;63.80
65064;DHT22;51654;51.452;6.644;2022-07-21T00:36:31;22.10;63.80
65064;DHT22;51654;51.452;6.644;2022-07-21T00:38:57;22.00;63.70
65064;DHT22;51654;51.452;6.644;2022-07-21T00:41:25;22.00;63.80
65064;DHT22;51654;51.452;6.644;2022-07-21T00:43:52;22.00;64.10
65064;DHT22;51654;51.452;6.644;2022-07-21T00:46:19;21.90;63.90
65064;DHT22;51654;51.452;6.644;2022-07-21T00:48:46;21.70;63.70
65064;DHT22;51654;51.452;6.644;2022-07-21T00:53:41;21.40;64.10
65064;DHT22;51654;51.452;6.644;2022-07-21T00:56:08;20.80;65.80
65064;DHT22;51654;51.452;6.644;2022-07-21T00:58:35;20.70;67.00
65064;DHT22;51654;51.452;6.644;2022-07-21T01:01:02;20.70;67.40
65064;DHT22;51654;51.452;6.644;2022-07-21T01:03:29;20.60;67.20
65064;DHT22;51654;51.452;6.644;2022-07-21T01:05:58;20.60;67.50
65064;DHT22;51654;51.452;6.644;2022-07-21T01:08:26;20.70;67.40
65064;DHT22;51654;51.452;6.644;2022-07-21T01:10:54;20.60;67.30
65064;DHT22;51654;51.452;6.644;2022-07-21T01:13:21;20.60;67.30
65064;DHT22;51654;51.452;6.644;2022-07-21T01:15:48;20.50;67.70
65064;DHT22;51654;51.452;6.644;2022-07-21T01:20:42;20.30;67.60
65064;DHT22;51654;51.452;6.644;2022-07-21T01:23:11;20.10;68.80
65064;DHT22;51654;51.452;6.644;2022-07-21T01:32:59;20.00;69.00
65064;DHT22;51654;51.452;6.644;2022-07-21T01:35:26;19.70;70.70
65064;DHT22;51654;51.452;6.644;2022-07-21T01:37:53;19.70;71.00
65064;DHT22;51654;51.452;6.644;2022-07-21T01:40:20;19.60;71.40
65064;DHT22;51654;51.452;6.644;2022-07-21T01:43:06;19.70;71.80
65064;DHT22;51654;51.452;6.644;2022-07-21T01:45:38;19.70;71.50
65064;DHT22;51654;51.452;6.644;2022-07-21T01:48:05;19.70;71.30
65064;DHT22;51654;51.452;6.644;2022-07-21T01:50:32;19.60;71.10
65064;DHT22;51654;51.452;6.644;2022-07-21T01:52:59;19.50;71.60
65064;DHT22;51654;51.452;6.644;2022-07-21T01:55:25;19.50;72.10
65064;DHT22;51654;51.452;6.644;2022-07-21T01:57:52;19.50;71.50
65064;DHT22;51654;51.452;6.644;2022-07-21T02:00:19;19.40;71.50
65064;DHT22;51654;51.452;6.644;2022-07-21T02:02:46;19.10;72.00
65064;DHT22;51654;51.452;6.644;2022-07-21T02:05:13;19.10;72.60
65064;DHT22;51654;51.452;6.644;2022-07-21T02:07:40;19.10;72.90
65064;DHT22;51654;51.452;6.644;2022-07-21T02:10:08;19.00;72.90
65064;DHT22;51654;51.452;6.644;2022-07-21T02:12:35;19.00;73.60
65064;DHT22;51654;51.452;6.644;2022-07-21T02:19:56;18.90;74.00
65064;DHT22;51654;51.452;6.644;2022-07-21T02:22:23;18.80;74.40
65064;DHT22;51654;51.452;6.644;2022-07-21T02:24:50;18.80;74.60
65064;DHT22;51654;51.452;6.644;2022-07-21T02:27:17;18.70;74.40
65064;DHT22;51654;51.452;6.644;2022-07-21T02:29:44;18.60;74.70
65064;DHT22;51654;51.452;6.644;2022-07-21T02:32:11;18.60;75.00
65064;DHT22;51654;51.452;6.644;2022-07-21T02:34:40;18.60;74.70
65064;DHT22;51654;51.452;6.644;2022-07-21T02:37:07;18.50;75.10
65064;DHT22;51654;51.452;6.644;2022-07-21T02:39:34;18.70;75.50
65064;DHT22;51654;51.452;6.644;2022-07-21T02:42:01;18.80;75.10
65064;DHT22;51654;51.452;6.644;2022-07-21T02:44:27;18.80;74.70
65064;DHT22;51654;51.452;6.644;2022-07-21T02:46:56;18.70;75.00
65064;DHT22;51654;51.452;6.644;2022-07-21T02:49:23;18.70;75.00
65064;DHT22;51654;51.452;6.644;2022-07-21T02:51:49;18.70;75.30
65064;DHT22;51654;51.452;6.644;2022-07-21T02:54:16;18.70;75.40
65064;DHT22;51654;51.452;6.644;2022-07-21T02:56:43;18.80;75.30
65064;DHT22;51654;51.452;6.644;2022-07-21T02:59:10;18.90;75.40
65064;DHT22;51654;51.452;6.644;2022-07-21T03:01:37;18.90;74.50
65064;DHT22;51654;51.452;6.644;2022-07-21T03:04:04;18.70;74.20
65064;DHT22;51654;51.452;6.644;2022-07-21T03:06:31;18.50;74.80
65064;DHT22;51654;51.452;6.644;2022-07-21T03:09:00;18.50;75.20
65064;DHT22;51654;51.452;6.644;2022-07-21T03:11:27;18.50;75.10
65064;DHT22;51654;51.452;6.644;2022-07-21T03:13:54;18.60;74.90
65064;DHT22;51654;51.452;6.644;2022-07-21T03:16:20;18.50;74.70
65064;DHT22;51654;51.452;6.644;2022-07-21T03:18:47;18.40;75.00
65064;DHT22;51654;51.452;6.644;2022-07-21T03:21:15;18.30;75.30
65064;DHT22;51654;51.452;6.644;2022-07-21T03:26:13;18.20;76.00
65064;DHT22;51654;51.452;6.644;2022-07-21T03:28:40;18.20;76.10
65064;DHT22;51654;51.452;6.644;2022-07-21T03:31:07;18.20;76.30
65064;DHT22;51654;51.452;6.644;2022-07-21T03:33:34;18.10;76.40
65064;DHT22;51654;51.452;6.644;2022-07-21T03:36:01;18.10;76.40
65064;DHT22;51654;51.452;6.644;2022-07-21T03:38:28;18.10;76.60
65064;DHT22;51654;51.452;6.644;2022-07-21T03:40:55;18.10;76.90
65064;DHT22;51654;51.452;6.644;2022-07-21T03:43:22;18.10;77.00
65064;DHT22;51654;51.452;6.644;2022-07-21T03:45:48;18.10;77.00
65064;DHT22;51654;51.452;6.644;2022-07-21T03:48:15;18.00;77.20
65064;DHT22;51654;51.452;6.644;2022-07-21T03:50:42;18.20;77.50
65064;DHT22;51654;51.452;6.644;2022-07-21T03:53:09;18.40;77.30
65064;DHT22;51654;51.452;6.644;2022-07-21T03:55:36;18.50;76.50
65064;DHT22;51654;51.452;6.644;2022-07-21T03:58:04;18.50;76.30
65064;DHT22;51654;51.452;6.644;2022-07-21T04:00:36;18.50;75.90
65064;DHT22;51654;51.452;6.644;2022-07-21T04:03:03;18.40;76.20
65064;DHT22;51654;51.452;6.644;2022-07-21T04:05:30;18.30;76.50
65064;DHT22;51654;51.452;6.644;2022-07-21T04:07:57;18.20;77.00
65064;DHT22;51654;51.452;6.644;2022-07-21T04:10:26;18.20;77.10
65064;DHT22;51654;51.452;6.644;2022-07-21T04:12:54;18.30;77.00
65064;DHT22;51654;51.452;6.644;2022-07-21T04:15:21;18.30;76.60
65064;DHT22;51654;51.452;6.644;2022-07-21T04:17:48;18.10;76.90
65064;DHT22;51654;51.452;6.644;2022-07-21T04:20:15;18.20;77.30
65064;DHT22;51654;51.452;6.644;2022-07-21T04:22:42;18.30;77.30
65064;DHT22;51654;51.452;6.644;2022-07-21T04:25:11;18.40;76.80
65064;DHT22;51654;51.452;6.644;2022-07-21T04:27:38;18.50;76.50
65064;DHT22;51654;51.452;6.644;2022-07-21T04:30:05;18.40;76.50
65064;DHT22;51654;51.452;6.644;2022-07-21T04:32:32;18.40;76.70
65064;DHT22;51654;51.452;6.644;2022-07-21T04:34:59;18.40;76.60
65064;DHT22;51654;51.452;6.644;2022-07-21T04:37:26;18.30;76.50
65064;DHT22;51654;51.452;6.644;2022-07-21T04:39:53;18.20;76.80
65064;DHT22;51654;51.452;6.644;2022-07-21T04:42:20;18.10;77.00
65064;DHT22;51654;51.452;6.644;2022-07-21T04:44:47;18.00;77.20
65064;DHT22;51654;51.452;6.644;2022-07-21T04:47:13;18.00;77.40
65064;DHT22;51654;51.452;6.644;2022-07-21T04:49:40;17.80;77.70
65064;DHT22;51654;51.452;6.644;2022-07-21T04:52:07;17.80;78.10
65064;DHT22;51654;51.452;6.644;2022-07-21T04:54:34;17.80;77.90
65064;DHT22;51654;51.452;6.644;2022-07-21T04:57:01;17.70;78.00
65064;DHT22;51654;51.452;6.644;2022-07-21T05:01:58;17.60;78.50
65064;DHT22;51654;51.452;6.644;2022-07-21T05:04:25;17.70;78.40
65064;DHT22;51654;51.452;6.644;2022-07-21T05:06:52;17.70;78.30
65064;DHT22;51654;51.452;6.644;2022-07-21T05:09:19;17.80;78.20
65064;DHT22;51654;51.452;6.644;2022-07-21T05:11:46;17.70;78.10
65064;DHT22;51654;51.452;6.644;2022-07-21T05:14:13;17.70;77.80
65064;DHT22;51654;51.452;6.644;2022-07-21T05:16:41;17.60;78.10
65064;DHT22;51654;51.452;6.644;2022-07-21T05:19:08;17.70;78.40
65064;DHT22;51654;51.452;6.644;2022-07-21T05:21:35;17.70;78.20
65064;DHT22;51654;51.452;6.644;2022-07-21T05:24:02;17.70;78.20
65064;DHT22;51654;51.452;6.644;2022-07-21T05:26:29;17.80;78.00
65064;DHT22;51654;51.452;6.644;2022-07-21T05:28:56;17.80;77.90
65064;DHT22;51654;51.452;6.644;2022-07-21T05:31:23;17.80;77.80
65064;DHT22;51654;51.452;6.644;2022-07-21T05:33:50;17.80;77.70
65064;DHT22;51654;51.452;6.644;2022-07-21T05:36:17;17.70;77.80
65064;DHT22;51654;51.452;6.644;2022-07-21T05:38:45;17.70;77.80
65064;DHT22;51654;51.452;6.644;2022-07-21T05:41:13;17.60;78.10
65064;DHT22;51654;51.452;6.644;2022-07-21T05:43:39;17.60;78.20
65064;DHT22;51654;51.452;6.644;2022-07-21T05:46:06;17.60;78.00
65064;DHT22;51654;51.452;6.644;2022-07-21T05:48:33;17.60;78.30
65064;DHT22;51654;51.452;6.644;2022-07-21T05:51:00;17.70;77.90
65064;DHT22;51654;51.452;6.644;2022-07-21T05:53:27;17.70;77.60
65064;DHT22;51654;51.452;6.644;2022-07-21T05:55:54;17.70;77.80
65064;DHT22;51654;51.452;6.644;2022-07-21T05:58:20;17.70;78.00
65064;DHT22;51654;51.452;6.644;2022-07-21T06:00:51;17.70;78.00
65064;DHT22;51654;51.452;6.644;2022-07-21T06:03:40;17.80;77.80
65064;DHT22;51654;51.452;6.644;2022-07-21T06:06:08;18.00;77.60
65064;DHT22;51654;51.452;6.644;2022-07-21T06:08:38;18.00;77.20
65064;DHT22;51654;51.452;6.644;2022-07-21T06:11:06;18.00;76.60
65064;DHT22;51654;51.452;6.644;2022-07-21T06:13:33;18.10;76.50
65064;DHT22;51654;51.452;6.644;2022-07-21T06:16:00;18.10;76.30
65064;DHT22;51654;51.452;6.644;2022-07-21T06:18:27;18.00;76.30
65064;DHT22;51654;51.452;6.644;2022-07-21T06:20:54;18.20;76.40
65064;DHT22;51654;51.452;6.644;2022-07-21T06:23:21;18.40;76.00
65064;DHT22;51654;51.452;6.644;2022-07-21T06:25:48;18.50;75.50
65064;DHT22;51654;51.452;6.644;2022-07-21T06:28:14;18.50;74.90
65064;DHT22;51654;51.452;6.644;2022-07-21T06:30:41;18.50;74.50
65064;DHT22;51654;51.452;6.644;2022-07-21T06:33:08;18.50;74.20
65064;DHT22;51654;51.452;6.644;2022-07-21T06:35:36;18.40;74.40
65064;DHT22;51654;51.452;6.644;2022-07-21T06:38:02;18.50;74.60
65064;DHT22;51654;51.452;6.644;2022-07-21T06:40:37;18.50;74.60
65064;DHT22;51654;51.452;6.644;2022-07-21T06:43:04;18.70;74.90
65064;DHT22;51654;51.452;6.644;2022-07-21T06:45:51;19.00;74.60
65064;DHT22;51654;51.452;6.644;2022-07-21T06:48:18;19.00;73.40
65064;DHT22;51654;51.452;6.644;2022-07-21T06:50:45;19.00;72.60
65064;DHT22;51654;51.452;6.644;2022-07-21T06:53:12;18.80;73.10
65064;DHT22;51654;51.452;6.644;2022-07-21T06:55:39;18.90;73.30
65064;DHT22;51654;51.452;6.644;2022-07-21T06:58:18;19.10;73.40
65064;DHT22;51654;51.452;6.644;2022-07-21T07:00:47;19.20;72.50
65064;DHT22;51654;51.452;6.644;2022-07-21T07:03:15;19.40;71.70
65064;DHT22;51654;51.452;6.644;2022-07-21T07:05:44;19.40;70.90
65064;DHT22;51654;51.452;6.644;2022-07-21T07:08:12;19.30;70.40
65064;DHT22;51654;51.452;6.644;2022-07-21T07:10:39;19.20;70.70
65064;DHT22;51654;51.452;6.644;2022-07-21T07:13:06;19.00;70.70
65064;DHT22;51654;51.452;6.644;2022-07-21T07:15:53;19.00;70.40
65064;DHT22;51654;51.452;6.644;2022-07-21T07:18:20;19.20;70.40
65064;DHT22;51654;51.452;6.644;2022-07-21T07:20:48;19.40;69.80
65064;DHT22;51654;51.452;6.644;2022-07-21T07:23:15;19.90;69.10
65064;DHT22;51654;51.452;6.644;2022-07-21T07:25:44;20.50;67.60
65064;DHT22;51654;51.452;6.644;2022-07-21T07:28:11;20.60;65.10
65064;DHT22;51654;51.452;6.644;2022-07-21T07:30:39;20.40;65.20
65064;DHT22;51654;51.452;6.644;2022-07-21T07:33:06;20.30;66.00
65064;DHT22;51654;51.452;6.644;2022-07-21T07:35:33;20.20;66.10
65064;DHT22;51654;51.452;6.644;2022-07-21T07:38:00;20.10;66.50
65064;DHT22;51654;51.452;6.644;2022-07-21T07:40:27;20.10;66.40
65064;DHT22;51654;51.452;6.644;2022-07-21T07:42:54;20.30;66.60
65064;DHT22;51654;51.452;6.644;2022-07-21T07:45:21;20.80;65.40
65064;DHT22;51654;51.452;6.644;2022-07-21T07:47:48;21.10;63.70
65064;DHT22;51654;51.452;6.644;2022-07-21T07:50:16;21.10;62.50
65064;DHT22;51654;51.452;6.644;2022-07-21T07:52:43;20.90;62.20
65064;DHT22;51654;51.452;6.644;2022-07-21T07:55:11;20.70;63.20
65064;DHT22;51654;51.452;6.644;2022-07-21T07:57:39;20.60;63.30
65064;DHT22;51654;51.452;6.644;2022-07-21T08:00:09;20.50;63.00
65064;DHT22;51654;51.452;6.644;2022-07-21T08:02:57;20.20;63.60
65064;DHT22;51654;51.452;6.644;2022-07-21T08:05:23;20.10;64.80
65064;DHT22;51654;51.452;6.644;2022-07-21T08:07:50;20.20;65.50
65064;DHT22;51654;51.452;6.644;2022-07-21T08:10:17;20.40;65.00
65064;DHT22;51654;51.452;6.644;2022-07-21T08:13:04;20.50;64.50
65064;DHT22;51654;51.452;6.644;2022-07-21T08:15:33;20.60;64.70
65064;DHT22;51654;51.452;6.644;2022-07-21T08:18:01;20.70;64.50
65064;DHT22;51654;51.452;6.644;2022-07-21T08:20:28;20.80;64.00
65064;DHT22;51654;51.452;6.644;2022-07-21T08:22:55;20.80;62.90
65064;DHT22;51654;51.452;6.644;2022-07-21T08:25:22;20.70;62.50
65064;DHT22;51654;51.452;6.644;2022-07-21T08:27:49;20.70;63.00
65064;DHT22;51654;51.452;6.644;2022-07-21T08:30:16;20.80;62.10
65064;DHT22;51654;51.452;6.644;2022-07-21T08:32:43;20.80;61.90
65064;DHT22;51654;51.452;6.644;2022-07-21T08:35:09;21.10;61.80
65064;DHT22;51654;51.452;6.644;2022-07-21T08:37:38;21.40;61.30
65064;DHT22;51654;51.452;6.644;2022-07-21T08:40:08;21.80;60.80
65064;DHT22;51654;51.452;6.644;2022-07-21T08:42:37;22.20;58.80
65064;DHT22;51654;51.452;6.644;2022-07-21T08:45:05;22.20;58.40
65064;DHT22;51654;51.452;6.644;2022-07-21T08:47:32;22.10;58.70
65064;DHT22;51654;51.452;6.644;2022-07-21T08:50:10;22.00;59.00
65064;DHT22;51654;51.452;6.644;2022-07-21T08:52:37;21.90;58.60
65064;DHT22;51654;51.452;6.644;2022-07-21T08:55:04;21.70;57.60
65064;DHT22;51654;51.452;6.644;2022-07-21T08:57:31;21.50;58.00
65064;DHT22;51654;51.452;6.644;2022-07-21T08:59:58;21.20;58.90
65064;DHT22;51654;51.452;6.644;2022-07-21T09:02:33;20.90;59.70
65064;DHT22;51654;51.452;6.644;2022-07-21T09:05:00;20.90;60.40
65064;DHT22;51654;51.452;6.644;2022-07-21T09:07:27;20.80;60.00
65064;DHT22;51654;51.452;6.644;2022-07-21T09:10:00;20.70;59.80
65064;DHT22;51654;51.452;6.644;2022-07-21T09:12:28;20.80;60.20
65064;DHT22;51654;51.452;6.644;2022-07-21T09:15:18;20.80;60.40
65064;DHT22;51654;51.452;6.644;2022-07-21T09:17:46;20.80;60.60
65064;DHT22;51654;51.452;6.644;2022-07-21T09:20:49;20.80;60.90
65064;DHT22;51654;51.452;6.644;2022-07-21T09:23:18;21.00;61.60
65064;DHT22;51654;51.452;6.644;2022-07-21T09:25:47;21.20;60.20
65064;DHT22;51654;51.452;6.644;2022-07-21T09:28:15;21.30;59.90
65064;DHT22;51654;51.452;6.644;2022-07-21T09:30:59;21.40;60.00
65064;DHT22;51654;51.452;6.644;2022-07-21T09:36:10;21.90;58.40
65064;DHT22;51654;51.452;6.644;2022-07-21T09:41:16;21.60;59.20
65064;DHT22;51654;51.452;6.644;2022-07-21T09:43:46;21.50;59.00
65064;DHT22;51654;51.452;6.644;2022-07-21T09:46:20;21.30;59.60
65064;DHT22;51654;51.452;6.644;2022-07-21T09:48:52;21.10;60.10
65064;DHT22;51654;51.452;6.644;2022-07-21T09:51:42;21.00;60.30
65064;DHT22;51654;51.452;6.644;2022-07-21T09:54:14;20.80;60.80
65064;DHT22;51654;51.452;6.644;2022-07-21T09:56:43;20.60;61.70
65064;DHT22;51654;51.452;6.644;2022-07-21T09:59:12;20.50;62.40
65064;DHT22;51654;51.452;6.644;2022-07-21T10:01:39;20.40;62.90
65064;DHT22;51654;51.452;6.644;2022-07-21T10:04:07;20.20;63.30
65064;DHT22;51654;51.452;6.644;2022-07-21T10:06:37;20.00;64.30
65064;DHT22;51654;51.452;6.644;2022-07-21T10:09:06;20.00;65.40
65064;DHT22;51654;51.452;6.644;2022-07-21T10:11:39;19.90;66.80
65064;DHT22;51654;51.452;6.644;2022-07-21T10:14:10;19.80;67.70
65064;DHT22;51654;51.452;6.644;2022-07-21T10:16:37;19.80;68.30
65064;DHT22;51654;51.452;6.644;2022-07-21T10:19:18;19.80;68.60
65064;DHT22;51654;51.452;6.644;2022-07-21T10:21:48;19.60;69.20
65064;DHT22;51654;51.452;6.644;2022-07-21T10:24:17;19.40;69.40
65064;DHT22;51654;51.452;6.644;2022-07-21T10:32:16;19.30;70.90
65064;DHT22;51654;51.452;6.644;2022-07-21T10:34:43;19.20;71.20
65064;DHT22;51654;51.452;6.644;2022-07-21T10:37:10;19.20;71.50
65064;DHT22;51654;51.452;6.644;2022-07-21T10:39:37;19.20;71.90
65064;DHT22;51654;51.452;6.644;2022-07-21T10:42:16;19.10;72.10
65064;DHT22;51654;51.452;6.644;2022-07-21T10:44:46;19.10;72.60
65064;DHT22;51654;51.452;6.644;2022-07-21T10:47:14;19.10;72.60
65064;DHT22;51654;51.452;6.644;2022-07-21T10:57:37;18.50;75.40
65064;DHT22;51654;51.452;6.644;2022-07-21T11:00:24;18.40;76.00
65064;DHT22;51654;51.452;6.644;2022-07-21T11:05:21;18.60;76.40
65064;DHT22;51654;51.452;6.644;2022-07-21T11:10:35;18.70;76.60
65064;DHT22;51654;51.452;6.644;2022-07-21T11:13:02;18.60;76.50
65064;DHT22;51654;51.452;6.644;2022-07-21T11:15:54;18.60;77.00
65064;DHT22;51654;51.452;6.644;2022-07-21T11:18:22;18.60;77.00
65064;DHT22;51654;51.452;6.644;2022-07-21T11:21:15;18.60;77.10
65064;DHT22;51654;51.452;6.644;2022-07-21T11:23:48;18.60;77.10
65064;DHT22;51654;51.452;6.644;2022-07-21T11:26:18;18.50;77.30
65064;DHT22;51654;51.452;6.644;2022-07-21T11:28:46;18.50;77.80
65064;DHT22;51654;51.452;6.644;2022-07-21T11:33:44;18.50;78.10
65064;DHT22;51654;51.452;6.644;2022-07-21T11:36:31;18.50;78.40
65064;DHT22;51654;51.452;6.644;2022-07-21T11:39:09;18.40;78.50
65064;DHT22;51654;51.452;6.644;2022-07-21T11:41:38;18.40;78.40
65064;DHT22;51654;51.452;6.644;2022-07-21T11:44:09;18.30;78.70
65064;DHT22;51654;51.452;6.644;2022-07-21T11:46:56;18.30;78.90
65064;DHT22;51654;51.452;6.644;2022-07-21T11:49:23;18.20;79.20
65064;DHT22;51654;51.452;6.644;2022-07-21T11:51:57;18.20;79.40
65064;DHT22;51654;51.452;6.644;2022-07-21T11:57:01;18.00;80.30
65064;DHT22;51654;51.452;6.644;2022-07-21T11:59:29;18.00;80.60
65064;DHT22;51654;51.452;6.644;2022-07-21T12:04:32;18.20;80.70
65064;DHT22;51654;51.452;6.644;2022-07-21T12:07:02;18.40;80.60
65064;DHT22;51654;51.452;6.644;2022-07-21T12:09:31;18.50;80.50
65064;DHT22;51654;51.452;6.644;2022-07-21T12:11:58;18.70;79.90
65064;DHT22;51654;51.452;6.644;2022-07-21T12:14:42;18.80;79.30
65064;DHT22;51654;51.452;6.644;2022-07-21T12:17:10;18.80;79.20
65064;DHT22;51654;51.452;6.644;2022-07-21T12:19:37;18.90;78.80
65064;DHT22;51654;51.452;6.644;2022-07-21T12:22:04;19.00;78.40
65064;DHT22;51654;51.452;6.644;2022-07-21T12:24:51;19.00;78.20
65064;DHT22;51654;51.452;6.644;2022-07-21T12:27:19;19.00;77.80
65064;DHT22;51654;51.452;6.644;2022-07-21T12:29:46;19.00;77.30
65064;DHT22;51654;51.452;6.644;2022-07-21T12:32:14;19.10;77.30
65064;DHT22;51654;51.452;6.644;2022-07-21T12:34:52;19.00;77.30
65064;DHT22;51654;51.452;6.644;2022-07-21T12:37:20;19.10;76.90
65064;DHT22;51654;51.452;6.644;2022-07-21T12:40:07;19.20;76.60
65064;DHT22;51654;51.452;6.644;2022-07-21T12:42:35;19.20;75.60
65064;DHT22;51654;51.452;6.644;2022-07-21T12:45:16;19.30;75.60
65064;DHT22;51654;51.452;6.644;2022-07-21T12:47:43;19.40;74.90
65064;DHT22;51654;51.452;6.644;2022-07-21T12:50:14;19.30;74.70
65064;DHT22;51654;51.452;6.644;2022-07-21T12:52:49;19.20;74.70
65064;DHT22;51654;51.452;6.644;2022-07-21T12:55:16;19.30;75.20
65064;DHT22;51654;51.452;6.644;2022-07-21T12:57:43;19.50;75.00
65064;DHT22;51654;51.452;6.644;2022-07-21T13:00:10;19.60;74.70
65064;DHT22;51654;51.452;6.644;2022-07-21T13:02:51;19.70;74.30
65064;DHT22;51654;51.452;6.644;2022-07-21T13:05:20;19.80;73.20
65064;DHT22;51654;51.452;6.644;2022-07-21T13:07:47;19.70;73.10
65064;DHT22;51654;51.452;6.644;2022-07-21T13:10:14;19.80;72.90
65064;DHT22;51654;51.452;6.644;2022-07-21T13:12:42;19.80;72.50
65064;DHT22;51654;51.452;6.644;2022-07-21T13:15:09;19.80;71.80
65064;DHT22;51654;51.452;6.644;2022-07-21T13:17:37;19.80;72.10
65064;DHT22;51654;51.452;6.644;2022-07-21T13:20:04;19.90;72.40
65064;DHT22;51654;51.452;6.644;2022-07-21T13:22:33;20.00;71.90
65064;DHT22;51654;51.452;6.644;2022-07-21T13:25:00;20.00;71.60
65064;DHT22;51654;51.452;6.644;2022-07-21T13:27:28;20.10;71.20
65064;DHT22;51654;51.452;6.644;2022-07-21T13:29:55;20.10;71.50
65064;DHT22;51654;51.452;6.644;2022-07-21T13:32:22;20.20;71.50
65064;DHT22;51654;51.452;6.644;2022-07-21T13:34:48;20.20;70.80
65064;DHT22;51654;51.452;6.644;2022-07-21T13:37:36;20.30;71.00
65064;DHT22;51654;51.452;6.644;2022-07-21T13:40:04;20.50;70.50
65064;DHT22;51654;51.452;6.644;2022-07-21T13:42:51;20.50;70.10
65064;DHT22;51654;51.452;6.644;2022-07-21T13:45:37;20.60;69.50
65064;DHT22;51654;51.452;6.644;2022-07-21T13:48:04;20.70;69.20
65064;DHT22;51654;51.452;6.644;2022-07-21T13:50:31;20.90;68.90
65064;DHT22;51654;51.452;6.644;2022-07-21T13:52:58;20.90;68.70
65064;DHT22;51654;51.452;6.644;2022-07-21T13:55:25;20.90;68.30
65064;DHT22;51654;51.452;6.644;2022-07-21T13:57:52;20.90;68.40
65064;DHT22;51654;51.452;6.644;2022-07-21T14:00:19;20.90;68.00
65064;DHT22;51654;51.452;6.644;2022-07-21T14:02:46;20.90;68.40
65064;DHT22;51654;51.452;6.644;2022-07-21T14:05:13;20.90;68.40
65064;DHT22;51654;51.452;6.644;2022-07-21T14:07:40;21.00;68.20
65064;DHT22;51654;51.452;6.644;2022-07-21T14:10:08;21.00;68.00
65064;DHT22;51654;51.452;6.644;2022-07-21T14:12:34;21.00;67.70
65064;DHT22;51654;51.452;6.644;2022-07-21T14:15:08;21.00;67.70
65064;DHT22;51654;51.452;6.644;2022-07-21T14:17:35;21.00;67.30
65064;DHT22;51654;51.452;6.644;2022-07-21T14:20:03;20.90;67.10
65064;DHT22;51654;51.452;6.644;2022-07-21T14:22:30;20.90;67.20
65064;DHT22;51654;51.452;6.644;2022-07-21T14:24:57;20.90;67.40
65064;DHT22;51654;51.452;6.644;2022-07-21T14:27:42;20.90;67.30
65064;DHT22;51654;51.452;6.644;2022-07-21T14:30:11;20.90;67.40
65064;DHT22;51654;51.452;6.644;2022-07-21T14:32:38;20.90;67.30
65064;DHT22;51654;51.452;6.644;2022-07-21T14:35:05;20.90;67.30
65064;DHT22;51654;51.452;6.644;2022-07-21T14:37:32;20.90;67.10
65064;DHT22;51654;51.452;6.644;2022-07-21T14:39:59;20.80;67.30
65064;DHT22;51654;51.452;6.644;2022-07-21T14:42:26;20.80;67.40
65064;DHT22;51654;51.452;6.644;2022-07-21T14:44:53;20.90;67.40
65064;DHT22;51654;51.452;6.644;2022-07-21T14:47:20;20.90;67.00
65064;DHT22;51654;51.452;6.644;2022-07-21T14:49:49;20.90;67.00
65064;DHT22;51654;51.452;6.644;2022-07-21T14:52:15;20.90;67.20
65064;DHT22;51654;51.452;6.644;2022-07-21T14:54:42;20.90;66.90
65064;DHT22;51654;51.452;6.644;2022-07-21T14:57:09;20.90;67.00
65064;DHT22;51654;51.452;6.644;2022-07-21T14:59:36;20.90;66.80
65064;DHT22;51654;51.452;6.644;2022-07-21T15:02:04;21.00;66.70
65064;DHT22;51654;51.452;6.644;2022-07-21T15:04:39;21.00;66.70
65064;DHT22;51654;51.452;6.644;2022-07-21T15:07:05;20.90;66.60
65064;DHT22;51654;51.452;6.644;2022-07-21T15:09:32;20.90;66.70
65064;DHT22;51654;51.452;6.644;2022-07-21T15:11:59;20.90;66.90
65064;DHT22;51654;51.452;6.644;2022-07-21T15:14:26;20.80;66.80
65064;DHT22;51654;51.452;6.644;2022-07-21T15:16:53;20.80;67.10
65064;DHT22;51654;51.452;6.644;2022-07-21T15:19:20;20.80;67.30
65064;DHT22;51654;51.452;6.644;2022-07-21T15:21:47;20.80;67.30
65064;DHT22;51654;51.452;6.644;2022-07-21T15:24:14;20.70;67.40
65064;DHT22;51654;51.452;6.644;2022-07-21T15:26:43;20.60;67.80
65064;DHT22;51654;51.452;6.644;2022-07-21T15:29:10;20.70;67.90
65064;DHT22;51654;51.452;6.644;2022-07-21T15:31:37;20.60;67.70
65064;DHT22;51654;51.452;6.644;2022-07-21T15:34:04;20.50;68.10
65064;DHT22;51654;51.452;6.644;2022-07-21T15:36:31;20.50;68.00
65064;DHT22;51654;51.452;6.644;2022-07-21T15:38:58;20.50;68.00
65064;DHT22;51654;51.452;6.644;2022-07-21T15:41:26;20.50;68.00
65064;DHT22;51654;51.452;6.644;2022-07-21T15:44:13;20.60;68.10
65064;DHT22;51654;51.452;6.644;2022-07-21T15:46:40;20.70;67.90
65064;DHT22;51654;51.452;6.644;2022-07-21T15:49:09;20.70;67.80
65064;DHT22;51654;51.452;6.644;2022-07-21T15:51:36;20.70;67.60
65064;DHT22;51654;51.452;6.644;2022-07-21T15:54:03;20.60;67.80
65064;DHT22;51654;51.452;6.644;2022-07-21T15:56:30;20.60;68.20
65064;DHT22;51654;51.452;6.644;2022-07-21T15:58:56;20.60;68.10
65064;DHT22;51654;51.452;6.644;2022-07-21T16:01:42;20.80;67.70
65064;DHT22;51654;51.452;6.644;2022-07-21T16:04:09;20.90;67.30
65064;DHT22;51654;51.452;6.644;2022-07-21T16:06:36;20.90;67.10
65064;DHT22;51654;51.452;6.644;2022-07-21T16:09:03;20.90;66.80
65064;DHT22;51654;51.452;6.644;2022-07-21T16:11:30;20.90;66.80
65064;DHT22;51654;51.452;6.644;2022-07-21T16:13:57;20.80;66.90
65064;DHT22;51654;51.452;6.644;2022-07-21T16:16:24;20.80;67.10
65064;DHT22;51654;51.452;6.644;2022-07-21T16:18:51;20.80;67.10
65064;DHT22;51654;51.452;6.644;2022-07-21T16:21:17;20.80;67.00
65064;DHT22;51654;51.452;6.644;2022-07-21T16:23:44;20.70;67.10
65064;DHT22;51654;51.452;6.644;2022-07-21T16:26:12;20.50;67.10
65064;DHT22;51654;51.452;6.644;2022-07-21T16:28:39;20.30;68.10
65064;DHT22;51654;51.452;6.644;2022-07-21T16:31:06;20.20;68.90
65064;DHT22;51654;51.452;6.644;2022-07-21T16:33:33;20.10;69.10
65064;DHT22;51654;51.452;6.644;2022-07-21T16:36:00;20.00;69.40